This is the latest recevied weather packets stored in our database for station/object HS5NMF. If no packets are shown the sender has not sent any weather packets the latest 10 day(s).
| Time | Temp. | Humidity | Pressure | Rain* | Wind** | Luminosity | Snow |
|---|---|---|---|---|---|---|---|
| 1777853664 | 30.56° C | 76% | 979 hPa | - | - | 0 W/m² | - |
| 1777853342 | 31.11° C | 74% | 979 hPa | - | - | 0 W/m² | - |
| 1777853018 | 30.56° C | 74% | 979 hPa | - | - | 0 W/m² | - |
| 1777852695 | 30.56° C | 74% | 979 hPa | - | - | 0 W/m² | - |
| 1777852374 | 30.56° C | 74% | 979 hPa | - | - | 0 W/m² | - |
| 1777852049 | 30.56° C | 74% | 979 hPa | - | - | 0 W/m² | - |
| 1777851730 | 30° C | 74% | 979 hPa | - | - | 0 W/m² | - |
| 1777851403 | 30° C | 74% | 978 hPa | - | - | 0 W/m² | - |
| 1777851080 | 29.44° C | 76% | 978 hPa | - | - | 0 W/m² | - |
| 1777850759 | 29.44° C | 75% | 978 hPa | - | - | 0 W/m² | - |
| 1777850433 | 28.89° C | 80% | 978 hPa | - | - | 0 W/m² | - |
| 1777850112 | 28.89° C | 77% | 978 hPa | - | - | 0 W/m² | - |
| 1777849788 | 28.89° C | 78% | 978 hPa | - | - | 0 W/m² | - |
| 1777849467 | 28.33° C | 80% | 978 hPa | - | - | 0 W/m² | - |
| 1777849144 | 28.89° C | 79% | 978 hPa | - | - | 0 W/m² | - |
| 1777848819 | 28.33° C | 80% | 978 hPa | - | - | 0 W/m² | - |
| 1777848495 | 28.89° C | 78% | 978 hPa | - | - | 0 W/m² | - |
| 1777848171 | 28.33° C | 80% | 978 hPa | - | - | 0 W/m² | - |
| 1777847847 | 28.33° C | 81% | 978 hPa | - | - | 0 W/m² | - |
| 1777847524 | 27.78° C | 85% | 978 hPa | - | - | 0 W/m² | - |
| 1777847202 | 28.33° C | 83% | 978 hPa | - | - | 0 W/m² | - |
| 1777846880 | 27.78° C | 85% | 978 hPa | - | - | 0 W/m² | - |
| 1777846557 | 28.33° C | 85% | 978 hPa | - | - | 0 W/m² | - |
| 1777846235 | 28.33° C | 84% | 978 hPa | - | - | 0 W/m² | - |
| 1777845910 | 28.33° C | 85% | 977 hPa | - | - | 0 W/m² | - |
* Rain since midnight (hover to see other rain measurements)
** Current wind speed in m/s (hover to see current wind gust speed)